createdAt,value
2022-08-07T00:00:33.694Z,75.15
2022-08-07T00:02:35.181Z,75.04
2022-08-07T00:02:36.648Z,75.76
2022-08-07T00:03:36.861Z,75.96
2022-08-07T00:04:33.909Z,76.06
2022-08-07T00:05:33.701Z,75.96
2022-08-07T00:06:33.957Z,76.36
2022-08-07T00:07:40.133Z,75.85
2022-08-07T00:08:33.673Z,76.26
2022-08-07T00:09:35.366Z,76.23
2022-08-07T00:10:33.670Z,76.23
2022-08-07T00:11:33.670Z,75.62
2022-08-07T00:12:33.666Z,76.23
2022-08-07T00:13:33.662Z,75.72
2022-08-07T00:14:33.662Z,75.42
2022-08-07T00:15:37.680Z,75.31
2022-08-07T00:16:33.658Z,75.42
2022-08-07T00:17:35.778Z,74.81
2022-08-07T00:18:33.655Z,74.71
2022-08-07T00:20:00.259Z,74.60
2022-08-07T00:20:35.476Z,74.60
2022-08-07T00:21:56.679Z,74.91
2022-08-07T00:22:35.296Z,75.72
2022-08-07T00:23:33.642Z,75.45
2022-08-07T00:24:33.641Z,76.12
2022-08-07T00:25:37.187Z,75.76
2022-08-07T00:26:49.199Z,75.21
2022-08-07T00:27:51.625Z,76.32
2022-08-07T00:28:34.419Z,75.92
2022-08-07T00:29:33.634Z,75.42
2022-08-07T00:30:33.629Z,75.55
2022-08-07T00:31:37.855Z,75.92
2022-08-07T00:32:34.837Z,75.82
2022-08-07T00:33:33.626Z,75.42
2022-08-07T00:34:33.622Z,75.62
2022-08-07T00:35:33.617Z,75.52
2022-08-07T00:36:33.617Z,76.32
2022-08-07T00:37:47.772Z,76.06
2022-08-07T00:38:33.615Z,76.77
2022-08-07T00:39:33.758Z,75.72
2022-08-07T00:40:39.320Z,75.35
2022-08-07T00:41:33.606Z,75.65
2022-08-07T00:42:33.604Z,76.46
2022-08-07T00:44:00.598Z,77.44
2022-08-07T00:44:33.797Z,76.23
2022-08-07T00:45:33.601Z,76.83
2022-08-07T00:46:34.202Z,75.62
2022-08-07T00:48:08.984Z,75.15
2022-08-07T00:48:33.591Z,74.91
2022-08-07T00:50:20.235Z,75.11
2022-08-07T00:50:51.010Z,75.04
2022-08-07T00:51:56.965Z,75.04
2022-08-07T00:52:33.583Z,74.95
2022-08-07T00:53:38.888Z,75.25
2022-08-07T00:54:33.579Z,75.52
2022-08-07T00:56:00.749Z,75.11
2022-08-07T00:56:33.904Z,75.62
2022-08-07T00:57:34.051Z,75.92
2022-08-07T00:58:33.575Z,76.12
2022-08-07T00:59:36.020Z,75.52
2022-08-07T01:00:33.577Z,75.82
2022-08-07T01:01:44.022Z,76.03
2022-08-07T01:02:33.562Z,75.52
2022-08-07T01:03:56.940Z,75.92
2022-08-07T01:04:37.439Z,76.03
2022-08-07T01:05:36.525Z,76.43
2022-08-07T01:06:33.557Z,76.73
2022-08-07T01:07:33.555Z,76.43
2022-08-07T01:08:33.553Z,77.24
2022-08-07T01:10:02.365Z,76.93
2022-08-07T01:10:33.545Z,76.43
2022-08-07T01:12:27.708Z,76.03
2022-08-07T01:12:33.543Z,76.23
2022-08-07T01:13:35.289Z,76.63
2022-08-07T01:14:33.538Z,76.12
2022-08-07T01:15:35.678Z,75.01
2022-08-07T01:16:33.534Z,75.11
2022-08-07T01:17:33.531Z,75.38
2022-08-07T01:18:33.532Z,75.72
2022-08-07T01:19:33.533Z,75.72
2022-08-07T01:20:33.531Z,75.82
2022-08-07T01:21:33.525Z,76.23
2022-08-07T01:22:33.521Z,76.32
2022-08-07T01:23:35.413Z,75.82
2022-08-07T01:24:33.519Z,76.23
2022-08-07T01:25:54.398Z,75.01
2022-08-07T01:26:33.515Z,74.91
2022-08-07T01:27:34.069Z,75.52
2022-08-07T01:28:33.515Z,75.11
2022-08-07T01:29:33.817Z,75.92
2022-08-07T01:30:33.506Z,75.21
2022-08-07T01:31:42.308Z,76.32
2022-08-07T01:32:33.503Z,75.62
2022-08-07T01:33:53.557Z,75.89
2022-08-07T01:34:33.500Z,74.91
2022-08-07T01:35:53.629Z,74.91
2022-08-07T01:36:36.430Z,75.01
2022-08-07T01:37:33.839Z,75.52
2022-08-07T01:38:33.491Z,76.12
2022-08-07T01:39:40.643Z,75.52
2022-08-07T01:40:33.490Z,75.38
2022-08-07T01:41:33.486Z,75.92
2022-08-07T01:42:40.234Z,76.12
2022-08-07T01:43:34.784Z,76.12
2022-08-07T01:44:33.481Z,76.03
2022-08-07T01:45:36.906Z,74.87
2022-08-07T01:46:33.477Z,76.19
2022-08-07T01:48:27.338Z,75.28
2022-08-07T01:48:33.914Z,75.01
2022-08-07T01:49:33.469Z,75.01
2022-08-07T01:50:33.465Z,75.62
2022-08-07T01:52:01.256Z,75.31
2022-08-07T01:52:33.462Z,74.91
2022-08-07T01:54:09.643Z,75.42
2022-08-07T01:54:36.952Z,74.81
2022-08-07T01:55:33.665Z,75.11
2022-08-07T01:56:33.468Z,75.52
2022-08-07T01:58:00.961Z,75.42
2022-08-07T01:58:33.630Z,75.01
2022-08-07T01:59:33.450Z,75.62
2022-08-07T02:00:33.445Z,75.72
2022-08-07T02:02:02.105Z,74.81
2022-08-07T02:03:18.061Z,75.72
2022-08-07T02:03:49.002Z,75.42
2022-08-07T02:04:33.483Z,75.62
2022-08-07T02:05:47.669Z,75.42
2022-08-07T02:06:33.442Z,75.01
2022-08-07T02:07:44.779Z,75.62
2022-08-07T02:08:33.430Z,75.11
2022-08-07T02:09:53.149Z,74.81
2022-08-07T02:10:33.426Z,76.03
2022-08-07T02:12:02.806Z,73.09
2022-08-07T02:12:33.424Z,74.60
2022-08-07T02:13:58.591Z,75.42
2022-08-07T02:14:35.859Z,75.52
2022-08-07T02:15:33.983Z,74.30
2022-08-07T02:16:33.922Z,74.91
2022-08-07T02:17:34.386Z,75.31
2022-08-07T02:18:33.411Z,75.11
2022-08-07T02:20:04.452Z,75.21
2022-08-07T02:20:33.405Z,74.91
2022-08-07T02:21:55.245Z,74.40
2022-08-07T02:22:33.400Z,74.60
2022-08-07T02:23:35.773Z,74.71
2022-08-07T02:24:33.403Z,73.90
2022-08-07T02:26:30.925Z,73.09
2022-08-07T02:26:34.735Z,74.33
2022-08-07T02:27:34.217Z,72.92
2022-08-07T02:28:33.390Z,73.63
2022-08-07T02:29:34.303Z,74.44
2022-08-07T02:30:33.386Z,74.84
2022-08-07T02:31:33.384Z,74.64
2022-08-07T02:32:33.382Z,75.25
2022-08-07T02:33:57.379Z,74.88
2022-08-07T02:34:33.375Z,73.97
2022-08-07T02:36:27.091Z,74.27
2022-08-07T02:36:33.735Z,75.28
2022-08-07T02:37:35.985Z,74.48
2022-08-07T02:38:33.370Z,74.37
2022-08-07T02:39:42.964Z,74.37
2022-08-07T02:40:35.354Z,75.32
2022-08-07T02:41:37.430Z,75.32
2022-08-07T02:42:33.363Z,75.12
2022-08-07T02:43:33.360Z,74.74
2022-08-07T02:44:34.875Z,75.22
2022-08-07T02:45:58.981Z,75.76
2022-08-07T02:46:33.353Z,75.66
2022-08-07T02:47:45.029Z,76.27
2022-08-07T02:48:34.355Z,76.37
2022-08-07T02:49:58.492Z,75.56
2022-08-07T02:50:33.341Z,76.43
2022-08-07T02:51:42.389Z,76.43
2022-08-07T02:52:33.340Z,77.08
2022-08-07T02:53:38.300Z,76.43
2022-08-07T02:54:33.336Z,75.66
2022-08-07T02:55:41.977Z,75.73
2022-08-07T02:56:33.330Z,76.13
2022-08-07T02:57:34.973Z,75.73
2022-08-07T02:58:33.879Z,76.74
2022-08-07T02:59:33.328Z,76.64
2022-08-07T03:00:33.325Z,76.13
2022-08-07T03:01:36.281Z,75.52
2022-08-07T03:02:33.320Z,75.22
2022-08-07T03:03:50.171Z,75.62
2022-08-07T03:04:33.323Z,75.22
2022-08-07T03:05:35.927Z,75.01
2022-08-07T03:06:34.650Z,76.03
2022-08-07T03:08:05.367Z,76.03
2022-08-07T03:08:33.305Z,75.52
2022-08-07T03:09:43.235Z,75.52
2022-08-07T03:10:33.301Z,76.03
2022-08-07T03:11:38.511Z,76.03
2022-08-07T03:12:33.296Z,76.84
2022-08-07T03:13:39.239Z,75.73
2022-08-07T03:14:33.289Z,76.43
2022-08-07T03:15:56.716Z,76.43
2022-08-07T03:16:33.290Z,74.91
2022-08-07T03:17:36.285Z,75.12
2022-08-07T03:18:34.953Z,76.06
2022-08-07T03:19:37.048Z,75.32
2022-08-07T03:20:33.275Z,75.52
2022-08-07T03:21:33.469Z,76.23
2022-08-07T03:22:33.276Z,76.64
2022-08-07T03:23:33.937Z,77.14
2022-08-07T03:24:33.267Z,76.27
2022-08-07T03:25:40.354Z,75.86
2022-08-07T03:26:33.270Z,75.66
2022-08-07T03:27:42.143Z,75.66
2022-08-07T03:28:37.353Z,75.19
2022-08-07T03:29:33.832Z,76.20
2022-08-07T03:30:33.253Z,76.40
2022-08-07T03:31:43.361Z,77.12
2022-08-07T03:32:33.252Z,77.01
2022-08-07T03:33:40.165Z,76.10
2022-08-07T03:34:33.281Z,75.22
2022-08-07T03:35:43.989Z,75.83
2022-08-07T03:36:33.279Z,75.97
2022-08-07T03:37:37.331Z,76.01
2022-08-07T03:38:33.510Z,77.22
2022-08-07T03:39:59.245Z,77.87
2022-08-07T03:40:36.648Z,78.08
2022-08-07T03:41:41.979Z,79.02
2022-08-07T03:42:33.229Z,79.50
2022-08-07T03:43:33.226Z,80.51
2022-08-07T03:44:34.387Z,79.19
2022-08-07T03:45:33.222Z,78.28
2022-08-07T03:46:33.221Z,78.08
2022-08-07T03:47:47.628Z,78.21
2022-08-07T03:48:33.215Z,78.62
2022-08-07T03:49:33.211Z,78.55
2022-08-07T03:50:33.215Z,79.16
2022-08-07T03:51:47.832Z,79.77
2022-08-07T03:52:33.207Z,80.42
2022-08-07T03:54:32.704Z,80.42
2022-08-07T03:54:54.087Z,80.42
2022-08-07T03:55:53.002Z,80.66
2022-08-07T03:56:34.226Z,80.77
2022-08-07T03:58:34.193Z,81.27
2022-08-07T03:59:08.476Z,82.09
2022-08-07T03:59:33.186Z,82.13
2022-08-07T04:00:33.553Z,82.23
2022-08-07T04:01:33.252Z,81.01
2022-08-07T04:02:33.185Z,80.23
2022-08-07T04:03:49.855Z,80.80
2022-08-07T04:04:33.172Z,81.35
2022-08-07T04:05:39.379Z,82.37
2022-08-07T04:06:37.951Z,83.33
2022-08-07T04:07:35.826Z,84.75
2022-08-07T04:08:33.164Z,84.14
2022-08-07T04:09:44.822Z,83.63
2022-08-07T04:10:33.161Z,84.08
2022-08-07T04:12:23.873Z,83.98
2022-08-07T04:12:35.292Z,84.18
2022-08-07T04:14:10.429Z,84.33
2022-08-07T04:14:38.969Z,84.63
2022-08-07T04:15:33.146Z,85.35
2022-08-07T04:16:33.142Z,85.04
2022-08-07T04:18:30.920Z,85.35
2022-08-07T04:18:59.555Z,85.04
2022-08-07T04:19:51.101Z,85.69
2022-08-07T04:20:35.183Z,85.96
2022-08-07T04:21:33.561Z,85.75
2022-08-07T04:22:33.127Z,85.75
2022-08-07T04:23:43.857Z,85.35
2022-08-07T04:24:38.708Z,85.55
2022-08-07T04:25:35.837Z,84.74
2022-08-07T04:26:33.115Z,85.08
2022-08-07T04:27:35.468Z,85.35
2022-08-07T04:28:33.110Z,85.35
2022-08-07T04:29:40.524Z,84.12
2022-08-07T04:30:40.207Z,84.12
2022-08-07T04:31:39.100Z,83.92
2022-08-07T04:32:34.474Z,85.35
2022-08-07T04:33:33.633Z,84.83
2022-08-07T04:34:39.436Z,85.65
2022-08-07T04:35:35.089Z,85.86
2022-08-07T04:36:33.085Z,86.51
2022-08-07T04:37:40.403Z,86.00
2022-08-07T04:38:33.080Z,85.75
2022-08-07T04:39:35.673Z,85.28
2022-08-07T04:40:33.075Z,85.49
2022-08-07T04:41:36.795Z,85.89
2022-08-07T04:42:33.070Z,86.00
2022-08-07T04:44:10.488Z,86.10
2022-08-07T04:44:33.062Z,86.71
2022-08-07T04:45:57.676Z,87.32
2022-08-07T04:46:34.737Z,87.73
2022-08-07T04:47:58.842Z,87.53
2022-08-07T04:48:33.049Z,88.04
2022-08-07T04:49:37.563Z,87.53
2022-08-07T04:50:33.043Z,88.04
2022-08-07T04:51:33.039Z,88.24
2022-08-07T04:52:33.040Z,87.73
2022-08-07T04:54:01.174Z,87.43
2022-08-07T04:54:33.470Z,88.04
2022-08-07T04:58:09.383Z,88.45
2022-08-07T04:58:12.790Z,88.24
2022-08-07T04:58:25.681Z,88.55
2022-08-07T04:58:47.520Z,89.06
2022-08-07T05:00:11.988Z,89.06
2022-08-07T05:00:33.247Z,89.63
2022-08-07T05:01:33.108Z,89.67
2022-08-07T05:02:33.007Z,89.63
2022-08-07T05:04:01.005Z,89.53
2022-08-07T05:04:33.230Z,90.00
2022-08-07T05:05:54.020Z,90.00
2022-08-07T05:06:42.951Z,90.00
2022-08-07T05:07:37.065Z,89.69
2022-08-07T05:09:45.323Z,88.93
2022-08-07T05:10:31.703Z,89.14
2022-08-07T05:11:57.618Z,89.45
2022-08-07T05:12:31.698Z,89.86
2022-08-07T05:14:53.822Z,89.96
2022-08-07T05:14:55.702Z,89.75
2022-08-07T05:15:31.685Z,89.40
2022-08-07T05:16:31.690Z,89.61
2022-08-07T05:17:52.019Z,89.71
2022-08-07T05:18:32.156Z,89.40
2022-08-07T05:19:44.189Z,89.06
2022-08-07T05:20:31.687Z,88.45
2022-08-07T05:22:00.146Z,88.85
2022-08-07T05:22:31.664Z,88.65
2022-08-07T05:23:31.663Z,88.28
2022-08-07T05:24:39.537Z,88.65
2022-08-07T05:26:10.350Z,88.75
2022-08-07T05:26:31.653Z,88.45
2022-08-07T05:28:02.893Z,88.85
2022-08-07T05:28:32.104Z,89.57
2022-08-07T05:29:38.823Z,89.87
2022-08-07T05:32:54.257Z,89.32
2022-08-07T05:34:04.508Z,90.20
2022-08-07T05:35:55.146Z,89.38
2022-08-07T05:38:08.285Z,88.63
2022-08-07T05:40:13.723Z,88.02
2022-08-07T05:40:14.159Z,88.42
2022-08-07T05:40:54.260Z,87.98
2022-08-07T05:43:49.817Z,87.06
2022-08-07T05:44:31.875Z,87.12
2022-08-07T05:45:46.873Z,87.32
2022-08-07T05:46:31.870Z,86.10
2022-08-07T05:47:38.588Z,85.60
2022-08-07T05:48:31.870Z,85.96
2022-08-07T05:51:31.457Z,85.76
2022-08-07T05:54:12.900Z,86.27
2022-08-07T05:54:55.544Z,86.53
2022-08-07T05:56:01.957Z,86.22
2022-08-07T05:56:44.620Z,86.13
2022-08-07T05:57:44.961Z,86.22
2022-08-07T05:58:49.346Z,86.33
2022-08-07T05:59:57.165Z,86.13
2022-08-07T06:00:46.347Z,84.87
2022-08-07T06:01:44.646Z,83.95
2022-08-07T06:02:44.645Z,83.24
2022-08-07T06:03:57.015Z,82.53
2022-08-07T06:04:44.602Z,81.92
2022-08-07T06:05:48.849Z,81.52
2022-08-07T06:06:46.285Z,82.17
2022-08-07T06:08:13.406Z,82.73
2022-08-07T06:08:44.907Z,83.24
2022-08-07T06:10:04.068Z,83.24
2022-08-07T06:10:44.587Z,83.34
2022-08-07T06:11:44.582Z,82.64
2022-08-07T06:14:12.751Z,82.70
2022-08-07T06:14:49.515Z,83.10
2022-08-07T06:15:44.653Z,83.51
2022-08-07T06:16:44.569Z,83.31
2022-08-07T06:17:53.383Z,83.20
2022-08-07T06:19:57.721Z,82.86
2022-08-07T06:20:50.024Z,83.06
2022-08-07T06:22:16.402Z,83.20
2022-08-07T06:22:40.199Z,83.81
2022-08-07T06:24:38.005Z,83.57
2022-08-07T06:24:56.941Z,82.86
2022-08-07T06:26:44.830Z,82.76
2022-08-07T06:27:59.926Z,81.95
2022-08-07T06:28:44.774Z,82.76
2022-08-07T06:29:44.833Z,82.62
2022-08-07T06:30:46.078Z,83.06
2022-08-07T06:32:44.772Z,83.12
2022-08-07T06:37:43.685Z,84.14
2022-08-07T06:38:35.720Z,84.41
2022-08-07T06:40:16.831Z,83.12
2022-08-07T06:40:35.878Z,81.77
2022-08-07T06:42:01.636Z,80.35
2022-08-07T06:43:21.372Z,81.06
2022-08-07T06:43:39.476Z,81.97
2022-08-07T06:44:36.904Z,81.67
2022-08-07T06:45:35.863Z,81.77
2022-08-07T06:46:35.704Z,79.94
2022-08-07T06:47:47.867Z,81.02
2022-08-07T06:48:35.704Z,81.93
2022-08-07T06:49:35.703Z,82.75
2022-08-07T06:50:36.086Z,81.93
2022-08-07T06:51:35.701Z,82.24
2022-08-07T06:52:36.593Z,81.39
2022-08-07T06:54:12.056Z,81.49
2022-08-07T06:55:34.102Z,82.84
2022-08-07T06:56:00.472Z,81.69
2022-08-07T06:56:38.320Z,80.18
2022-08-07T06:57:43.445Z,82.60
2022-08-07T07:00:12.929Z,81.59
2022-08-07T07:00:35.691Z,82.30
2022-08-07T07:01:43.744Z,80.44
2022-08-07T07:02:49.097Z,79.57
2022-08-07T07:04:58.316Z,79.53
2022-08-07T07:06:02.787Z,80.20
2022-08-07T07:07:01.155Z,81.71
2022-08-07T07:08:04.073Z,82.12
2022-08-07T07:08:58.310Z,82.46
2022-08-07T07:09:58.511Z,82.42
2022-08-07T07:10:58.846Z,82.73
2022-08-07T07:12:07.404Z,82.73
2022-08-07T07:12:58.309Z,82.83
2022-08-07T07:14:01.800Z,82.93
2022-08-07T07:14:58.311Z,81.98
2022-08-07T07:15:58.307Z,80.36
2022-08-07T07:16:58.308Z,80.26
2022-08-07T07:17:58.307Z,78.44
2022-08-07T07:18:58.306Z,76.32
2022-08-07T07:19:59.156Z,75.51
2022-08-07T07:20:58.309Z,76.02
2022-08-07T07:22:04.812Z,76.89
2022-08-07T07:24:08.056Z,77.94
2022-08-07T07:24:11.127Z,78.41
2022-08-07T07:25:14.198Z,78.20
2022-08-07T07:26:32.897Z,77.60
2022-08-07T07:26:58.306Z,78.20
2022-08-07T07:28:02.323Z,77.86
2022-08-07T07:29:39.463Z,76.89
2022-08-07T07:30:11.971Z,75.74
2022-08-07T07:30:58.331Z,75.95
2022-08-07T07:31:58.301Z,75.34
2022-08-07T07:33:58.298Z,76.86
2022-08-07T07:34:58.303Z,77.66
2022-08-07T07:36:04.866Z,78.77
2022-08-07T07:36:58.302Z,76.72
2022-08-07T07:38:02.885Z,77.32
2022-08-07T07:38:58.371Z,77.22
2022-08-07T07:39:58.371Z,76.68
2022-08-07T07:41:02.218Z,76.21
2022-08-07T07:42:09.059Z,76.07
2022-08-07T07:42:58.291Z,75.16
2022-08-07T07:44:16.832Z,74.05
2022-08-07T07:44:58.290Z,74.76
2022-08-07T07:46:39.754Z,75.57
2022-08-07T07:47:11.860Z,76.44
2022-08-07T07:47:58.283Z,76.75
2022-08-07T07:49:08.805Z,76.64
2022-08-07T07:50:32.959Z,76.14
2022-08-07T07:50:58.286Z,77.35
2022-08-07T07:51:59.784Z,78.16
2022-08-07T07:52:58.283Z,74.63
2022-08-07T07:53:58.277Z,75.23
2022-08-07T07:54:58.276Z,74.93
2022-08-07T07:56:00.974Z,75.94
2022-08-07T07:56:58.273Z,75.84
2022-08-07T07:58:58.274Z,74.99
2022-08-07T07:59:58.271Z,73.79
2022-08-07T08:05:00.889Z,72.54
2022-08-07T08:07:35.794Z,70.83
2022-08-07T08:10:35.697Z,71.00
2022-08-07T08:11:59.719Z,71.20
2022-08-07T08:12:36.807Z,72.57
2022-08-07T08:13:18.527Z,72.57
2022-08-07T08:14:22.851Z,71.26
2022-08-07T08:16:18.524Z,71.06
2022-08-07T08:17:57.607Z,71.03
2022-08-07T08:18:19.058Z,70.46
2022-08-07T08:18:36.358Z,72.07
2022-08-07T08:20:15.841Z,70.43
2022-08-07T08:20:23.058Z,71.03
2022-08-07T08:21:18.524Z,67.41
2022-08-07T08:22:18.526Z,65.19
2022-08-07T08:23:18.526Z,65.26
2022-08-07T08:24:44.987Z,67.68
2022-08-07T08:25:27.022Z,67.58
2022-08-07T08:26:18.530Z,67.98
2022-08-07T08:27:18.534Z,67.78
2022-08-07T08:28:23.974Z,66.54
2022-08-07T08:29:18.543Z,66.03
2022-08-07T08:30:19.714Z,65.80
2022-08-07T08:31:22.744Z,64.30
2022-08-07T08:32:25.027Z,62.86
2022-08-07T08:33:18.545Z,60.55
2022-08-07T08:34:26.647Z,63.06
2022-08-07T08:35:18.550Z,63.23
2022-08-07T08:36:18.561Z,63.84
2022-08-07T08:38:01.208Z,65.04
2022-08-07T08:38:19.756Z,63.31
2022-08-07T08:39:18.600Z,60.49
2022-08-07T08:40:23.532Z,58.29
2022-08-07T08:41:18.573Z,58.18
2022-08-07T08:42:18.576Z,58.09
2022-08-07T08:43:18.582Z,58.46
2022-08-07T08:44:18.584Z,60.06
2022-08-07T08:45:18.590Z,60.94
2022-08-07T08:46:20.367Z,61.34
2022-08-07T08:47:18.599Z,62.01
2022-08-07T08:48:18.625Z,62.31
2022-08-07T08:49:18.628Z,59.08
2022-08-07T08:50:35.323Z,57.98
2022-08-07T08:51:49.160Z,56.87
2022-08-07T08:52:18.992Z,54.97
2022-08-07T08:53:18.635Z,53.47
2022-08-07T08:54:18.643Z,55.65
2022-08-07T08:55:21.133Z,54.85
2022-08-07T08:56:18.651Z,53.94
2022-08-07T08:57:18.657Z,53.62
2022-08-07T08:58:20.371Z,56.22
2022-08-07T08:59:18.669Z,58.39
2022-08-07T09:00:18.677Z,58.89
2022-08-07T09:01:19.517Z,57.17
2022-08-07T09:02:18.755Z,59.77
2022-08-07T09:03:18.693Z,59.04
2022-08-07T09:04:18.696Z,55.24
2022-08-07T09:05:20.002Z,55.51
2022-08-07T09:06:18.705Z,54.52
2022-08-07T09:07:22.976Z,55.99
2022-08-07T09:08:28.160Z,55.88
2022-08-07T09:09:23.749Z,55.39
2022-08-07T09:10:18.925Z,54.29
2022-08-07T09:11:24.967Z,52.49
2022-08-07T09:12:30.425Z,54.32
2022-08-07T09:13:18.737Z,53.04
2022-08-07T09:14:18.744Z,52.67
2022-08-07T09:16:20.309Z,52.89
2022-08-07T09:16:23.468Z,54.90
2022-08-07T09:17:18.751Z,55.69
2022-08-07T09:18:22.499Z,55.82
2022-08-07T09:19:51.919Z,54.64
2022-08-07T09:20:34.643Z,54.87
2022-08-07T09:21:58.006Z,53.97
2022-08-07T09:24:28.341Z,54.80
2022-08-07T09:24:31.969Z,55.73
2022-08-07T09:24:33.628Z,57.13
2022-08-07T09:25:18.778Z,57.13
2022-08-07T09:26:20.906Z,57.26
2022-08-07T09:27:18.785Z,57.06
2022-08-07T09:30:02.368Z,59.86
2022-08-07T09:30:04.694Z,58.06
2022-08-07T09:30:25.396Z,59.26
2022-08-07T09:31:18.839Z,56.96
2022-08-07T09:32:18.983Z,55.78
2022-08-07T09:33:40.857Z,57.08
2022-08-07T09:34:18.809Z,56.85
2022-08-07T09:36:04.464Z,58.76
2022-08-07T09:36:18.815Z,56.98
2022-08-07T09:37:18.816Z,56.98
2022-08-07T09:38:18.821Z,56.78
2022-08-07T09:39:54.448Z,58.18
2022-08-07T09:40:18.878Z,56.68
2022-08-07T09:41:18.823Z,57.39
2022-08-07T09:42:23.024Z,58.59
2022-08-07T09:43:18.827Z,57.98
2022-08-07T09:44:30.045Z,57.28
2022-08-07T09:47:24.371Z,60.60
2022-08-07T09:47:50.581Z,60.69
2022-08-07T09:47:52.710Z,61.19
2022-08-07T09:48:20.371Z,62.80
2022-08-07T09:50:00.494Z,61.60
2022-08-07T09:50:19.978Z,61.80
2022-08-07T09:52:16.254Z,60.52
2022-08-07T09:52:34.506Z,60.12
2022-08-07T09:53:18.847Z,57.41
2022-08-07T09:54:18.853Z,59.82
2022-08-07T09:55:29.440Z,58.92
2022-08-07T09:56:19.655Z,58.31
2022-08-07T09:57:18.854Z,59.49
2022-08-07T09:58:18.868Z,57.61
2022-08-07T09:59:21.677Z,56.88
2022-08-07T10:00:19.035Z,59.49
2022-08-07T10:01:52.374Z,60.10
2022-08-07T10:02:19.114Z,63.40
2022-08-07T10:04:03.271Z,62.80
2022-08-07T10:04:28.201Z,60.60
2022-08-07T10:05:18.871Z,58.31
2022-08-07T10:06:18.914Z,59.12
2022-08-07T10:07:25.775Z,58.79
2022-08-07T10:08:18.889Z,58.42
2022-08-07T10:09:23.573Z,57.51
2022-08-07T10:10:21.346Z,57.98
2022-08-07T10:12:00.225Z,56.88
2022-08-07T10:12:21.824Z,57.98
2022-08-07T10:13:55.019Z,58.79
2022-08-07T10:14:23.057Z,58.26
2022-08-07T10:15:19.016Z,58.26
2022-08-07T10:16:19.116Z,57.06
2022-08-07T10:17:18.894Z,55.45
2022-08-07T10:18:18.898Z,54.75
2022-08-07T10:19:18.898Z,56.83
2022-08-07T10:20:21.888Z,53.92
2022-08-07T10:21:50.449Z,53.52
2022-08-07T10:22:18.908Z,53.22
2022-08-07T10:23:18.906Z,53.32
2022-08-07T10:24:18.911Z,54.82
2022-08-07T10:25:21.001Z,55.40
2022-08-07T10:26:24.605Z,53.80
2022-08-07T10:27:18.910Z,55.50
2022-08-07T10:28:18.912Z,54.50
2022-08-07T10:29:18.910Z,56.30
2022-08-07T10:30:18.932Z,53.37
2022-08-07T10:31:18.920Z,55.60
2022-08-07T10:32:37.074Z,54.39
2022-08-07T10:33:18.936Z,53.50
2022-08-07T10:34:27.023Z,52.80
2022-08-07T10:35:20.532Z,53.80
2022-08-07T10:36:18.924Z,53.39
2022-08-07T10:37:18.929Z,51.69
2022-08-07T10:38:35.716Z,53.09
2022-08-07T10:39:19.001Z,54.50
2022-08-07T10:40:20.932Z,53.30
2022-08-07T10:41:47.306Z,54.80
2022-08-07T10:42:21.283Z,54.60
2022-08-07T10:43:19.522Z,53.89
2022-08-07T10:44:19.545Z,54.80
2022-08-07T10:45:19.368Z,54.80
2022-08-07T10:46:18.940Z,53.87
2022-08-07T10:47:18.939Z,55.98
2022-08-07T10:48:18.943Z,53.87
2022-08-07T10:49:45.369Z,54.67
2022-08-07T10:50:19.078Z,54.27
2022-08-07T10:51:57.221Z,54.47
2022-08-07T10:52:18.944Z,54.57
2022-08-07T10:53:21.253Z,53.47
2022-08-07T10:54:18.950Z,53.67
2022-08-07T10:55:27.021Z,53.47
2022-08-07T10:56:19.719Z,54.24
2022-08-07T10:57:18.953Z,52.55
2022-08-07T10:58:32.090Z,53.64
2022-08-07T10:59:21.156Z,51.34
2022-08-07T11:00:36.714Z,51.77
2022-08-07T11:01:19.007Z,52.27
2022-08-07T11:02:32.805Z,53.44
2022-08-07T11:03:18.965Z,53.77
2022-08-07T11:04:32.166Z,53.47
2022-08-07T11:05:18.968Z,55.87
2022-08-07T11:06:18.965Z,54.17
2022-08-07T11:07:24.891Z,52.87
2022-08-07T11:08:18.973Z,52.27
2022-08-07T11:10:08.672Z,53.07
2022-08-07T11:10:19.126Z,53.57
2022-08-07T11:11:20.378Z,54.77
2022-08-07T11:12:31.516Z,52.47
2022-08-07T11:14:43.988Z,51.89
2022-08-07T11:14:57.067Z,54.70
2022-08-07T11:15:18.985Z,52.69
2022-08-07T11:16:19.534Z,53.87
2022-08-07T11:17:23.521Z,51.59
2022-08-07T11:18:18.990Z,53.89
2022-08-07T11:19:21.517Z,53.17
2022-08-07T11:20:18.989Z,53.67
2022-08-07T11:21:18.997Z,52.55
2022-08-07T11:22:32.457Z,52.64
2022-08-07T11:23:20.784Z,50.94
2022-08-07T11:24:18.997Z,51.42
2022-08-07T11:25:19.801Z,51.22
2022-08-07T11:26:18.997Z,51.52
2022-08-07T11:27:20.666Z,51.50
2022-08-07T11:28:18.999Z,50.70
2022-08-07T11:29:43.556Z,50.32
2022-08-07T11:30:19.405Z,51.32
2022-08-07T11:31:19.001Z,51.32
2022-08-07T11:32:25.732Z,51.14
2022-08-07T11:33:19.008Z,50.94
2022-08-07T11:34:19.009Z,51.04
2022-08-07T11:35:26.738Z,49.94
2022-08-07T11:36:25.109Z,49.94
2022-08-07T11:37:19.014Z,50.42
2022-08-07T11:38:21.399Z,49.62
2022-08-07T11:39:19.383Z,50.02
2022-08-07T11:40:19.941Z,50.22
2022-08-07T11:41:28.346Z,50.52
2022-08-07T11:42:19.244Z,50.12
2022-08-07T11:43:19.021Z,52.89
2022-08-07T11:44:19.073Z,50.32
2022-08-07T11:45:20.294Z,51.39
2022-08-07T11:46:19.026Z,53.59
2022-08-07T11:47:19.026Z,52.69
2022-08-07T11:48:29.643Z,52.39
2022-08-07T11:49:50.038Z,52.29
2022-08-07T11:50:31.431Z,52.72
2022-08-07T11:51:22.885Z,54.29
2022-08-07T11:52:19.035Z,53.62
2022-08-07T11:53:19.037Z,51.72
2022-08-07T11:54:22.190Z,50.62
2022-08-07T11:56:12.055Z,50.52
2022-08-07T11:56:27.158Z,49.41
2022-08-07T11:57:19.042Z,52.52
2022-08-07T11:58:19.046Z,53.02
2022-08-07T12:00:08.960Z,50.72
2022-08-07T12:00:24.538Z,50.49
2022-08-07T12:01:20.143Z,50.49
2022-08-07T12:02:20.858Z,47.89
2022-08-07T12:03:41.538Z,48.90
2022-08-07T12:04:19.053Z,48.99
2022-08-07T12:05:28.869Z,49.79
2022-08-07T12:06:37.229Z,49.49
2022-08-07T12:07:26.948Z,49.99
2022-08-07T12:08:25.984Z,49.59
2022-08-07T12:09:23.350Z,51.79
2022-08-07T12:10:19.065Z,53.92
2022-08-07T12:11:21.019Z,49.49
2022-08-07T12:12:19.068Z,52.12
2022-08-07T12:13:35.344Z,52.59
2022-08-07T12:14:19.329Z,51.92
2022-08-07T12:15:35.765Z,50.52
2022-08-07T12:16:30.127Z,49.49
2022-08-07T12:17:19.704Z,48.90
2022-08-07T12:18:22.233Z,49.69
2022-08-07T12:19:21.158Z,50.39
2022-08-07T12:20:30.038Z,50.20
2022-08-07T12:21:21.052Z,49.79
2022-08-07T12:22:37.701Z,49.09
2022-08-07T12:23:21.652Z,48.90
2022-08-07T12:24:38.030Z,49.49
2022-08-07T12:26:02.932Z,50.47
2022-08-07T12:26:22.685Z,52.19
2022-08-07T12:27:28.142Z,50.89
2022-08-07T12:28:31.088Z,50.99
2022-08-07T12:29:20.296Z,50.49
2022-08-07T12:30:19.101Z,51.69
2022-08-07T12:31:22.480Z,49.07
2022-08-07T12:32:19.104Z,51.27
2022-08-07T12:33:28.191Z,51.37
2022-08-07T12:34:19.397Z,50.77
2022-08-07T12:35:19.317Z,50.59
2022-08-07T12:36:19.110Z,52.09
2022-08-07T12:37:23.412Z,50.49
2022-08-07T12:38:38.614Z,51.59
2022-08-07T12:39:44.247Z,50.77
2022-08-07T12:40:46.322Z,50.37
2022-08-07T12:41:19.158Z,50.47
2022-08-07T12:42:27.202Z,51.27
2022-08-07T12:44:01.361Z,49.87
2022-08-07T12:44:19.123Z,50.27
2022-08-07T12:45:19.132Z,48.87
2022-08-07T12:46:26.047Z,49.65
2022-08-07T12:47:21.496Z,48.85
2022-08-07T12:48:28.011Z,48.02
2022-08-07T12:49:25.435Z,49.35
2022-08-07T12:50:33.994Z,48.02
2022-08-07T12:51:19.141Z,49.12
2022-08-07T12:52:19.511Z,49.55
2022-08-07T12:53:19.288Z,49.72
2022-08-07T12:54:37.379Z,47.83
2022-08-07T12:55:19.146Z,48.75
2022-08-07T12:56:19.150Z,49.22
2022-08-07T12:59:02.924Z,49.35
2022-08-07T13:00:02.919Z,49.95
2022-08-07T13:01:03.015Z,48.85
2022-08-07T13:02:02.924Z,48.93
2022-08-07T13:03:06.739Z,48.93
2022-08-07T13:04:05.156Z,49.72
2022-08-07T13:05:02.939Z,49.12
2022-08-07T13:06:16.940Z,49.95
2022-08-07T13:07:02.943Z,47.72
2022-08-07T13:08:12.136Z,49.12
2022-08-07T13:09:12.462Z,49.12
2022-08-07T13:10:37.992Z,47.45
2022-08-07T13:11:02.944Z,47.72
2022-08-07T13:12:10.283Z,50.95
2022-08-07T13:13:02.954Z,47.05
2022-08-07T13:14:02.947Z,48.94
2022-08-07T13:15:02.950Z,49.25
2022-08-07T13:16:02.950Z,47.92
2022-08-07T13:17:02.954Z,47.53
2022-08-07T13:18:02.954Z,47.22
2022-08-07T13:19:02.958Z,47.22
2022-08-07T13:20:03.074Z,47.03
2022-08-07T13:21:02.960Z,46.33
2022-08-07T13:22:12.378Z,47.60
2022-08-07T13:23:09.728Z,49.20
2022-08-07T13:24:04.828Z,46.80